Latest Coastal Weather Observations for Rosslyn Bay Harbour

IDQ60701

Issued at 11:55 pm EST Tuesday 30 September 2014 (issued every 10 minutes, with the page automatically refreshed every 10 minutes)

About coastal observations | Map of coastal stations | Coastal observations for QLD | Marine services | Other Formats
Station Details ID: 033208 Name: ROSSLYN BAY NTC AWS Lat: -23.16 Lon: 150.79 Height: 0.0 m
Data from the previous 72 hours. | See also: Recent months for locations in Queensland
Date/Time
EST
Temp

°C
Wind Pressure Rain
since 9am
mm
Weather Cloud Vis
km
Sea
Height
m
Swell
Dir
 
Speed
knots
Gust
knots
hPa Trend Height
m
Period
s
Dir
30/11:30pm 21.7 NNE 8 13 1019.4 - - - - - - - - -
30/11:00pm 21.8 NE 9 12 1019.5 - - - - - - - - -
30/10:30pm 21.9 NE 10 13 1019.7 - - - - - - - - -
30/10:00pm 21.8 ENE 8 11 1019.7 - - - - - - - - -
30/09:30pm 21.8 NE 9 12 1019.7 - - - - - - - - -
30/09:00pm 21.9 ENE 11 15 1019.6 - - - - - - - - -
30/08:30pm 21.9 ENE 5 10 1019.6 - - - - - - - - -
30/08:00pm 22.0 NE 7 11 1019.4 - - - - - - - - -
30/07:30pm 22.0 ENE 4 8 1019.1 - - - - - - - - -
30/07:00pm 22.1 ENE 5 10 1018.7 - - - - - - - - -
30/06:30pm 22.1 ENE 3 8 1018.3 - - - - - - - - -
30/06:00pm 22.3 ENE 6 9 1018.0 - - - - - - - - -
30/05:30pm 22.0 ENE 4 8 1017.8 - - - - - - - - -
30/05:00pm 23.0 ENE 4 9 1017.7 - - - - - - - - -
30/04:30pm 22.1 ENE 6 9 1017.5 - - - - - - - - -
30/04:00pm 22.5 NE 5 9 1017.5 - - - - - - - - -
30/03:30pm 22.1 NE 6 8 1017.5 - - - - - - - - -
30/03:00pm 22.3 NE 4 7 1017.7 - - - - - - - - -
30/02:30pm 22.6 NE 4 7 1017.9 - - - - - - - - -
30/02:00pm 22.3 NE 4 7 1018.2 - - - - - - - - -
30/01:30pm 22.8 NE 3 5 1018.7 - - - - - - - - -
30/01:00pm 22.6 NNE 3 5 1019.0 - - - - - - - - -
30/12:30pm 22.2 NNE 4 5 1019.4 - - - - - - - - -
30/12:00pm 22.1 NNE 3 5 1019.9 - - - - - - - - -
30/11:30am 22.4 NNE 4 6 1020.3 - - - - - - - - -
30/11:00am 22.4 N 4 6 1020.8 - - - - - - - - -
30/10:30am 22.1 N 3 6 1021.2 - - - - - - - - -
30/10:00am 22.2 N 3 5 1021.5 - - - - - - - - -
30/09:30am 22.1 N 3 5 1021.5 - - - - - - - - -
30/09:00am 21.8 NNE 2 3 1021.4 - - - - - - - - -
30/08:30am 21.7 SSW 1 5 1021.2 - - - - - - - - -
30/08:00am 21.8 SE 1 3 1020.8 - - - - - - - - -
30/07:30am 19.9 SSW 3 4 1020.6 - - - - - - - - -
30/07:00am 19.4 W 2 2 1020.4 - - - - - - - - -
30/06:30am 17.7 SW 1 2 1020.0 - - - - - - - - -
30/06:00am 18.0 W 2 3 1019.8 - - - - - - - - -
30/05:30am 18.9 S 2 3 1019.6 - - - - - - - - -
30/05:00am 18.6 S 2 3 1019.3 - - - - - - - - -
30/04:30am 19.1 CALM 0 2 1019.0 - - - - - - - - -
30/04:00am 19.0 W 2 4 1018.9 - - - - - - - - -
30/03:30am 21.0 ENE 3 7 1018.8 - - - - - - - - -
30/03:00am 21.1 ENE 5 8 1018.6 - - - - - - - - -
30/02:30am 21.2 NE 7 9 1018.7 - - - - - - - - -
30/02:00am 21.2 NE 7 10 1018.8 - - - - - - - - -
30/01:30am 21.3 NE 8 11 1018.9 - - - - - - - - -
30/01:00am 21.4 ENE 6 10 1019.2 - - - - - - - - -
30/12:30am 21.4 ENE 5 10 1019.4 - - - - - - - - -
30/12:00am 21.6 ENE 5 10 1019.6 - - - - - - - - -
 
Date/Time
EST
Temp

°C
Wind Pressure Rain
since 9am
mm
Weather Cloud Vis
km
Sea
Height
m
Swell
Dir
 
Speed
knots
Gust
knots
hPa Trend Height
m
Period
s
Dir
29/11:30pm 21.6 ENE 4 9 1019.8 - - - - - - - - -
29/11:00pm 21.7 ENE 5 10 1020.0 - - - - - - - - -
29/10:30pm 21.5 ENE 5 10 1019.9 - - - - - - - - -
29/10:00pm 21.6 ESE 4 10 1019.9 - - - - - - - - -
29/09:30pm 21.6 E 4 11 1020.0 - - - - - - - - -
29/09:00pm 21.6 SSW 3 10 1020.0 - - - - - - - - -
29/08:30pm 21.6 NW 3 7 1019.8 - - - - - - - - -
29/08:00pm 21.6 SW 4 10 1019.4 - - - - - - - - -
29/07:30pm 21.6 WSW 3 7 1019.1 - - - - - - - - -
29/07:00pm 21.6 WSW 2 8 1018.9 - - - - - - - - -
29/06:30pm 21.8 E 2 7 1018.5 - - - - - - - - -
29/06:00pm 21.8 S 2 8 1018.2 - - - - - - - - -
29/05:30pm 22.0 E 4 10 1018.0 - - - - - - - - -
29/05:00pm 22.5 ENE 6 11 1017.6 - - - - - - - - -
29/04:30pm 21.9 ENE 7 12 1017.5 - - - - - - - - -
29/04:00pm 21.9 ENE 8 11 1017.5 - - - - - - - - -
29/03:30pm 22.5 ENE 7 11 1017.5 - - - - - - - - -
29/03:00pm 22.6 ENE 7 12 1017.6 - - - - - - - - -
29/02:30pm 22.9 ENE 7 12 1017.8 - - - - - - - - -
29/02:00pm 23.1 ENE 6 12 1018.1 - - - - - - - - -
29/01:30pm 23.1 ENE 5 11 1018.4 - - - - - - - - -
29/01:00pm 23.2 ENE 4 10 1018.8 - - - - - - - - -
29/12:30pm 22.9 ENE 5 12 1019.1 - - - - - - - - -
29/12:00pm 22.6 SW 3 6 1019.5 - - - - - - - - -
29/11:30am 22.9 SW 3 7 1019.8 - - - - - - - - -
29/11:00am 22.7 SW 2 6 1020.1 - - - - - - - - -
29/10:30am 22.4 SW 3 9 1020.4 - - - - - - - - -
29/10:00am 22.1 SW 2 5 1020.6 - - - - - - - - -
29/09:30am 22.5 SW 3 7 1020.6 - - - - - - - - -
29/09:00am 21.9 SW 3 7 1020.6 - - - - - - - - -
29/08:30am 22.4 SW 2 8 1020.6 - - - - - - - - -
29/08:00am 21.8 WSW 2 6 1020.2 - - - - - - - - -
29/07:30am 21.7 SSW 4 6 1020.0 - - - - - - - - -
29/07:00am 21.6 S 4 7 1019.7 - - - - - - - - -
29/06:30am 21.2 S 2 5 1019.4 - - - - - - - - -
29/06:00am 20.8 SW 1 4 1019.1 - - - - - - - - -
29/05:30am 19.6 SSW 1 2 1019.0 - - - - - - - - -
29/05:00am 20.0 NNE 2 5 1018.6 - - - - - - - - -
29/04:30am 19.6 E 4 9 1018.3 - - - - - - - - -
29/04:00am 20.9 S 4 7 1018.1 - - - - - - - - -
29/03:30am 20.9 S 2 4 1018.0 - - - - - - - - -
29/03:00am 21.0 S 2 5 1018.2 - - - - - - - - -
29/02:30am 21.1 SW 2 5 1018.3 - - - - - - - - -
29/02:00am 21.1 WSW 3 6 1018.7 - - - - - - - - -
29/01:30am 21.1 SSW 4 9 1019.0 - - - - - - - - -
29/01:00am 21.1 S 4 8 1019.2 - - - - - - - - -
29/12:30am 21.2 SW 3 7 1019.3 - - - - - - - - -
29/12:00am 21.3 SSW 3 8 1019.7 - - - - - - - - -
 
Date/Time
EST
Temp

°C
Wind Pressure Rain
since 9am
mm
Weather Cloud Vis
km
Sea
Height
m
Swell
Dir
 
Speed
knots
Gust
knots
hPa Trend Height
m
Period
s
Dir
28/11:30pm 21.5 WSW 3 6 1019.9 - - - - - - - - -
28/11:00pm 21.6 SE 3 12 1020.0 - - - - - - - - -
28/10:30pm 21.5 W 3 7 1020.1 - - - - - - - - -
28/10:00pm 21.5 W 3 8 1020.0 - - - - - - - - -
28/09:30pm 21.4 W 4 9 1019.9 - - - - - - - - -
28/09:00pm 21.4 WSW 3 8 1019.8 - - - - - - - - -
28/08:30pm 21.6 WSW 3 7 1019.5 - - - - - - - - -
28/08:00pm 21.5 SW 4 8 1019.1 - - - - - - - - -
28/07:30pm 21.5 SSW 4 10 1018.9 - - - - - - - - -
28/07:00pm 21.6 SSW 5 9 1018.6 - - - - - - - - -
28/06:30pm 21.7 WSW 4 12 1018.2 - - - - - - - - -
28/06:00pm 21.9 W 5 10 1017.9 - - - - - - - - -
28/05:30pm 21.9 WSW 4 11 1017.7 - - - - - - - - -
28/05:00pm 22.2 W 4 11 1017.5 - - - - - - - - -
28/04:30pm 22.3 SSW 3 12 1017.6 - - - - - - - - -
28/04:00pm 22.7 SW 3 9 1017.3 - - - - - - - - -
28/03:30pm 23.4 E 3 9 1017.4 - - - - - - - - -
28/03:00pm 23.3 NW 3 9 1017.6 - - - - - - - - -
28/02:30pm 22.9 WNW 3 7 1017.8 - - - - - - - - -
28/02:00pm 23.6 WSW 2 7 1018.0 - - - - - - - - -
28/01:30pm 23.1 S 4 9 1018.2 - - - - - - - - -
28/01:00pm 23.1 SW 3 6 1018.5 - - - - - - - - -
28/12:30pm 22.7 S 5 9 1018.9 - - - - - - - - -
28/12:00pm 22.1 S 6 10 1019.2 - - - - - - - - -
28/11:30am 22.3 S 7 10 1019.4 - - - - - - - - -
28/11:00am 21.9 S 8 12 1019.7 - - - - - - - - -
28/10:30am 21.9 S 9 12 1020.0 - - - - - - - - -
28/10:00am 21.9 S 8 13 1020.3 - - - - - - - - -
28/09:30am 21.6 S 6 10 1020.1 - - - - - - - - -
28/09:00am 21.4 S 5 9 1020.1 - - - - - - - - -
28/08:30am 21.2 S 5 7 1019.9 - - - - - - - - -
28/08:00am 20.5 SSW 3 5 1019.7 - - - - - - - - -
28/07:30am 19.4 SSW 5 8 1019.8 - - - - - - - - -
28/07:00am 19.1 S 3 5 1019.2 - - - - - - - - -
28/06:30am 18.3 S 3 6 1019.1 - - - - - - - - -
28/06:00am 18.0 S 4 6 1018.5 - - - - - - - - -
28/05:30am 18.1 S 4 6 1018.2 - - - - - - - - -
28/05:00am 18.3 S 4 5 1017.8 - - - - - - - - -
28/04:30am 18.8 S 4 5 1017.4 - - - - - - - - -
28/04:00am 18.5 S 3 4 1017.3 - - - - - - - - -
28/03:30am 18.3 S 2 3 1017.4 - - - - - - - - -
28/03:00am 18.7 S 4 5 1017.1 - - - - - - - - -
28/02:30am 18.9 S 4 5 1017.1 - - - - - - - - -
28/02:00am 19.2 S 4 5 1017.2 - - - - - - - - -
28/01:30am 19.8 SSW 1 3 1017.3 - - - - - - - - -
28/01:00am 21.2 SE 2 6 1017.3 - - - - - - - - -
28/12:30am 20.3 SW 1 4 1017.6 - - - - - - - - -
28/12:00am 19.7 SSW 1 2 1018.0 - - - - - - - - -

Other Formats:

Comma delimited format used in spreadsheet applications
http://www.bom.gov.au/fwo/IDQ60701/IDQ60701.95298.axf

JavaScript Object Notation format (JSON) in row-major order
http://www.bom.gov.au/fwo/IDQ60701/IDQ60701.95298.json